sensor_id;sensor_type;location;lat;lon;timestamp;P1;durP1;ratioP1;P2;durP2;ratioP2
85687;SDS011;76120;53.070;8.802;2024-02-15T14:03:29;10.100000;;;6.100000;;
85687;SDS011;76120;53.070;8.802;2024-02-15T14:04:51;10.100000;;;6.200000;;
85687;SDS011;76120;53.070;8.802;2024-02-15T14:05:36;8.800000;;;6.300000;;
85687;SDS011;76120;53.070;8.802;2024-02-15T14:06:20;9.300000;;;6.000000;;
85687;SDS011;76120;53.070;8.802;2024-02-15T14:14:55;9.000000;;;6.200000;;
85687;SDS011;76120;53.070;8.802;2024-02-15T14:15:39;7.400000;;;6.100000;;
85687;SDS011;76120;53.070;8.802;2024-02-15T14:16:24;9.900000;;;6.200000;;
85687;SDS011;76120;53.070;8.802;2024-02-15T14:17:09;10.400000;;;7.000000;;
85687;SDS011;76120;53.070;8.802;2024-02-15T14:17:55;10.000000;;;6.700000;;
85687;SDS011;76120;53.070;8.802;2024-02-15T14:18:39;9.300000;;;6.900000;;
85687;SDS011;76120;53.070;8.802;2024-02-15T14:19:24;7.800000;;;6.200000;;
85687;SDS011;76120;53.070;8.802;2024-02-15T14:20:11;9.700000;;;7.300000;;
85687;SDS011;76120;53.070;8.802;2024-02-15T14:20:54;8.800000;;;7.100000;;
85687;SDS011;76120;53.070;8.802;2024-02-15T14:21:39;8.500000;;;6.500000;;
85687;SDS011;76120;53.070;8.802;2024-02-15T14:22:24;7.300000;;;6.000000;;
85687;SDS011;76120;53.070;8.802;2024-02-15T14:23:09;9.300000;;;6.700000;;
85687;SDS011;76120;53.070;8.802;2024-02-15T14:23:54;7.700000;;;5.900000;;
85687;SDS011;76120;53.070;8.802;2024-02-15T14:24:39;7.900000;;;5.900000;;
85687;SDS011;76120;53.070;8.802;2024-02-15T14:25:24;7.800000;;;5.900000;;
85687;SDS011;76120;53.070;8.802;2024-02-15T14:26:09;7.900000;;;5.700000;;
85687;SDS011;76120;53.070;8.802;2024-02-15T14:26:54;8.600000;;;5.400000;;
85687;SDS011;76120;53.070;8.802;2024-02-15T14:27:39;8.300000;;;5.900000;;
85687;SDS011;76120;53.070;8.802;2024-02-15T14:28:23;8.200000;;;5.600000;;
85687;SDS011;76120;53.070;8.802;2024-02-15T14:30:27;8.000000;;;6.000000;;
85687;SDS011;76120;53.070;8.802;2024-02-15T14:31:12;8.900000;;;5.600000;;
85687;SDS011;76120;53.070;8.802;2024-02-15T14:31:56;8.500000;;;5.000000;;
85687;SDS011;76120;53.070;8.802;2024-02-15T14:32:41;8.000000;;;5.300000;;
85687;SDS011;76120;53.070;8.802;2024-02-15T14:33:27;9.900000;;;5.700000;;
85687;SDS011;76120;53.070;8.802;2024-02-15T14:34:11;8.300000;;;5.600000;;
85687;SDS011;76120;53.070;8.802;2024-02-15T14:34:56;9.900000;;;5.700000;;
85687;SDS011;76120;53.070;8.802;2024-02-15T14:35:41;9.200000;;;5.400000;;
85687;SDS011;76120;53.070;8.802;2024-02-15T14:36:27;7.200000;;;5.300000;;
85687;SDS011;76120;53.070;8.802;2024-02-15T14:39:16;9.300000;;;5.700000;;
85687;SDS011;76120;53.070;8.802;2024-02-15T14:40:32;7.800000;;;5.200000;;
85687;SDS011;76120;53.070;8.802;2024-02-15T14:41:45;7.600000;;;5.400000;;
85687;SDS011;76120;53.070;8.802;2024-02-15T14:43:01;7.200000;;;5.200000;;
85687;SDS011;76120;53.070;8.802;2024-02-15T14:44:20;7.600000;;;5.300000;;
85687;SDS011;76120;53.070;8.802;2024-02-15T14:45:31;7.700000;;;5.600000;;
85687;SDS011;76120;53.070;8.802;2024-02-15T14:46:46;8.400000;;;5.000000;;
85687;SDS011;76120;53.070;8.802;2024-02-15T14:48:00;8.300000;;;5.000000;;
85687;SDS011;76120;53.070;8.802;2024-02-15T14:49:16;7.600000;;;5.200000;;
85687;SDS011;76120;53.070;8.802;2024-02-15T14:50:30;6.900000;;;5.100000;;
85687;SDS011;76120;53.070;8.802;2024-02-15T14:51:45;8.100000;;;4.900000;;
85687;SDS011;76120;53.070;8.802;2024-02-15T14:54:44;8.100000;;;5.200000;;
85687;SDS011;76120;53.070;8.802;2024-02-15T14:55:59;7.200000;;;5.100000;;
85687;SDS011;76120;53.070;8.802;2024-02-15T14:57:14;8.400000;;;5.100000;;
85687;SDS011;76120;53.070;8.802;2024-02-15T14:58:29;7.900000;;;4.900000;;
85687;SDS011;76120;53.070;8.802;2024-02-15T14:59:44;7.200000;;;5.100000;;
85687;SDS011;76120;53.070;8.802;2024-02-15T15:00:59;7.300000;;;4.800000;;
85687;SDS011;76120;53.070;8.802;2024-02-15T15:02:14;7.500000;;;5.200000;;
85687;SDS011;76120;53.070;8.802;2024-02-15T15:03:30;7.100000;;;4.700000;;
85687;SDS011;76120;53.070;8.802;2024-02-15T15:04:43;7.500000;;;5.000000;;
85687;SDS011;76120;53.070;8.802;2024-02-15T15:05:59;8.000000;;;4.700000;;
85687;SDS011;76120;53.070;8.802;2024-02-15T15:07:13;8.000000;;;6.100000;;
85687;SDS011;76120;53.070;8.802;2024-02-15T15:08:28;7.400000;;;5.100000;;
85687;SDS011;76120;53.070;8.802;2024-02-15T15:17:17;9.500000;;;5.300000;;
85687;SDS011;76120;53.070;8.802;2024-02-15T15:19:01;8.800000;;;5.800000;;
85687;SDS011;76120;53.070;8.802;2024-02-15T15:20:51;7.400000;;;4.600000;;
85687;SDS011;76120;53.070;8.802;2024-02-15T15:22:30;7.200000;;;5.700000;;
85687;SDS011;76120;53.070;8.802;2024-02-15T15:24:16;7.100000;;;4.800000;;
85687;SDS011;76120;53.070;8.802;2024-02-15T15:26:01;7.000000;;;4.700000;;
85687;SDS011;76120;53.070;8.802;2024-02-15T15:27:46;7.600000;;;5.500000;;
85687;SDS011;76120;53.070;8.802;2024-02-15T15:29:30;8.000000;;;5.400000;;
85687;SDS011;76120;53.070;8.802;2024-02-15T17:21:02;8.600000;;;4.400000;;
85687;SDS011;76120;53.070;8.802;2024-02-15T17:22:46;6.800000;;;4.900000;;
85687;SDS011;76120;53.070;8.802;2024-02-15T17:24:53;1.900000;;;1.700000;;
85687;SDS011;76120;53.070;8.802;2024-02-15T17:44:58;5.500000;;;4.200000;;
85687;SDS011;76120;53.070;8.802;2024-02-15T17:45:37;6.200000;;;4.100000;;
85687;SDS011;76120;53.070;8.802;2024-02-15T17:46:22;5.700000;;;4.300000;;
85687;SDS011;76120;53.070;8.802;2024-02-15T17:47:07;6.200000;;;5.100000;;
85687;SDS011;76120;53.070;8.802;2024-02-15T17:47:52;5.700000;;;4.200000;;
85687;SDS011;76120;53.070;8.802;2024-02-15T17:48:37;6.600000;;;4.100000;;
85687;SDS011;76120;53.070;8.802;2024-02-15T17:49:22;6.200000;;;4.100000;;
85687;SDS011;76120;53.070;8.802;2024-02-15T17:50:08;7.000000;;;3.900000;;
85687;SDS011;76120;53.070;8.802;2024-02-15T17:50:52;6.200000;;;4.200000;;
85687;SDS011;76120;53.070;8.802;2024-02-15T17:51:37;6.800000;;;4.800000;;
85687;SDS011;76120;53.070;8.802;2024-02-15T17:52:22;6.000000;;;3.800000;;
85687;SDS011;76120;53.070;8.802;2024-02-15T17:53:07;6.200000;;;4.100000;;
85687;SDS011;76120;53.070;8.802;2024-02-15T17:53:57;6.100000;;;4.400000;;
85687;SDS011;76120;53.070;8.802;2024-02-15T17:54:36;5.100000;;;4.000000;;
85687;SDS011;76120;53.070;8.802;2024-02-15T17:55:21;9.900000;;;4.100000;;
85687;SDS011;76120;53.070;8.802;2024-02-15T17:56:06;6.000000;;;3.900000;;
85687;SDS011;76120;53.070;8.802;2024-02-15T17:57:54;-1.000000;;;-1.000000;;
85687;SDS011;76120;53.070;8.802;2024-02-15T17:59:09;-1.000000;;;-1.000000;;
85687;SDS011;76120;53.070;8.802;2024-02-15T18:00:24;-1.000000;;;-1.000000;;
85687;SDS011;76120;53.070;8.802;2024-02-15T18:01:39;-1.000000;;;-1.000000;;
85687;SDS011;76120;53.070;8.802;2024-02-15T18:02:54;-1.000000;;;-1.000000;;
85687;SDS011;76120;53.070;8.802;2024-02-15T18:04:44;4.500000;;;2.900000;;
85687;SDS011;76120;53.070;8.802;2024-02-15T18:06:09;5.800000;;;3.200000;;
85687;SDS011;76120;53.070;8.802;2024-02-15T18:08:03;6.400000;;;3.800000;;
85687;SDS011;76120;53.070;8.802;2024-02-15T18:09:26;5.100000;;;3.000000;;
85687;SDS011;76120;53.070;8.802;2024-02-15T18:10:52;15.000000;;;3.500000;;
85687;SDS011;76120;53.070;8.802;2024-02-15T18:12:16;9.800000;;;4.200000;;
85687;SDS011;76120;53.070;8.802;2024-02-15T18:13:42;7.000000;;;3.700000;;
85687;SDS011;76120;53.070;8.802;2024-02-15T18:15:07;6.900000;;;3.600000;;
85687;SDS011;76120;53.070;8.802;2024-02-15T18:16:32;4.200000;;;3.300000;;
85687;SDS011;76120;53.070;8.802;2024-02-15T18:17:56;8.600000;;;3.500000;;
85687;SDS011;76120;53.070;8.802;2024-02-15T18:19:22;8.400000;;;3.400000;;
85687;SDS011;76120;53.070;8.802;2024-02-15T18:20:46;4.500000;;;3.800000;;
85687;SDS011;76120;53.070;8.802;2024-02-15T18:22:12;5.200000;;;3.400000;;
85687;SDS011;76120;53.070;8.802;2024-02-15T18:23:36;5.200000;;;4.000000;;
85687;SDS011;76120;53.070;8.802;2024-02-15T18:26:09;5.800000;;;4.100000;;
85687;SDS011;76120;53.070;8.802;2024-02-15T18:27:33;5.300000;;;3.400000;;
85687;SDS011;76120;53.070;8.802;2024-02-15T18:30:12;6.500000;;;3.900000;;
85687;SDS011;76120;53.070;8.802;2024-02-15T18:32:30;4.500000;;;3.100000;;
85687;SDS011;76120;53.070;8.802;2024-02-15T18:34:40;9.100000;;;4.200000;;
85687;SDS011;76120;53.070;8.802;2024-02-15T18:36:23;6.400000;;;2.800000;;
85687;SDS011;76120;53.070;8.802;2024-02-15T18:38:14;3.900000;;;2.700000;;
85687;SDS011;76120;53.070;8.802;2024-02-15T18:40:05;3.900000;;;3.200000;;
85687;SDS011;76120;53.070;8.802;2024-02-15T18:41:54;5.200000;;;3.300000;;
85687;SDS011;76120;53.070;8.802;2024-02-15T18:43:43;3.900000;;;2.800000;;
85687;SDS011;76120;53.070;8.802;2024-02-15T18:45:35;3.300000;;;2.400000;;
85687;SDS011;76120;53.070;8.802;2024-02-15T18:47:24;3.700000;;;2.300000;;
85687;SDS011;76120;53.070;8.802;2024-02-15T18:49:14;5.200000;;;2.700000;;
85687;SDS011;76120;53.070;8.802;2024-02-15T18:51:04;4.500000;;;2.200000;;
85687;SDS011;76120;53.070;8.802;2024-02-15T18:52:59;5.300000;;;3.300000;;
85687;SDS011;76120;53.070;8.802;2024-02-15T18:54:43;4.700000;;;2.500000;;
85687;SDS011;76120;53.070;8.802;2024-02-15T18:57:00;6.100000;;;3.400000;;
85687;SDS011;76120;53.070;8.802;2024-02-15T18:58:59;-1.000000;;;-1.000000;;
85687;SDS011;76120;53.070;8.802;2024-02-15T19:00:14;-1.000000;;;-1.000000;;
85687;SDS011;76120;53.070;8.802;2024-02-15T19:02:03;-1.000000;;;-1.000000;;
85687;SDS011;76120;53.070;8.802;2024-02-15T19:07:19;-1.000000;;;-1.000000;;
85687;SDS011;76120;53.070;8.802;2024-02-15T19:09:17;-1.000000;;;-1.000000;;
85687;SDS011;76120;53.070;8.802;2024-02-15T19:14:54;-1.000000;;;-1.000000;;
85687;SDS011;76120;53.070;8.802;2024-02-15T19:16:18;4.100000;;;2.600000;;
85687;SDS011;76120;53.070;8.802;2024-02-15T19:17:34;7.700000;;;2.600000;;
85687;SDS011;76120;53.070;8.802;2024-02-15T19:19:33;-1.000000;;;-1.000000;;
85687;SDS011;76120;53.070;8.802;2024-02-15T19:21:47;8.800000;;;2.900000;;
85687;SDS011;76120;53.070;8.802;2024-02-15T19:22:58;13.300000;;;2.700000;;
85687;SDS011;76120;53.070;8.802;2024-02-15T19:24:42;3.500000;;;1.200000;;
85687;SDS011;76120;53.070;8.802;2024-02-15T19:25:59;0.400000;;;0.400000;;
85687;SDS011;76120;53.070;8.802;2024-02-15T19:27:16;1.900000;;;1.300000;;
85687;SDS011;76120;53.070;8.802;2024-02-15T19:28:33;8.700000;;;3.000000;;
85687;SDS011;76120;53.070;8.802;2024-02-15T19:47:16;-1.000000;;;-1.000000;;
85687;SDS011;76120;53.070;8.802;2024-02-15T19:48:03;2.800000;;;2.100000;;
85687;SDS011;76120;53.070;8.802;2024-02-15T19:48:49;2.600000;;;1.900000;;
85687;SDS011;76120;53.070;8.802;2024-02-15T19:49:36;9.300000;;;3.100000;;
85687;SDS011;76120;53.070;8.802;2024-02-15T19:50:23;7.000000;;;6.400000;;
85687;SDS011;76120;53.070;8.802;2024-02-15T19:51:09;2.800000;;;1.400000;;
85687;SDS011;76120;53.070;8.802;2024-02-15T19:52:40;4.500000;;;1.900000;;
85687;SDS011;76120;53.070;8.802;2024-02-15T19:53:26;3.300000;;;3.000000;;
85687;SDS011;76120;53.070;8.802;2024-02-15T19:55:09;3.700000;;;2.300000;;
85687;SDS011;76120;53.070;8.802;2024-02-15T19:56:46;9.500000;;;2.900000;;
85687;SDS011;76120;53.070;8.802;2024-02-15T19:57:55;16.100000;;;5.100000;;
85687;SDS011;76120;53.070;8.802;2024-02-15T19:59:12;5.100000;;;4.600000;;
85687;SDS011;76120;53.070;8.802;2024-02-15T20:00:30;7.300000;;;4.000000;;
85687;SDS011;76120;53.070;8.802;2024-02-15T20:01:47;7.700000;;;4.900000;;
85687;SDS011;76120;53.070;8.802;2024-02-15T20:03:05;10.000000;;;5.200000;;
85687;SDS011;76120;53.070;8.802;2024-02-15T20:04:22;15.500000;;;10.000000;;
85687;SDS011;76120;53.070;8.802;2024-02-15T20:05:40;9.100000;;;4.100000;;
85687;SDS011;76120;53.070;8.802;2024-02-15T20:06:57;8.600000;;;5.400000;;
85687;SDS011;76120;53.070;8.802;2024-02-15T20:08:15;16.100000;;;4.300000;;
85687;SDS011;76120;53.070;8.802;2024-02-15T20:09:32;15.900000;;;8.000000;;
85687;SDS011;76120;53.070;8.802;2024-02-15T20:10:50;13.400000;;;4.800000;;
85687;SDS011;76120;53.070;8.802;2024-02-15T20:12:07;12.200000;;;4.900000;;
85687;SDS011;76120;53.070;8.802;2024-02-15T20:13:25;14.200000;;;6.500000;;
85687;SDS011;76120;53.070;8.802;2024-02-15T20:14:42;5.800000;;;3.800000;;
85687;SDS011;76120;53.070;8.802;2024-02-15T20:16:00;21.900000;;;10.200000;;
85687;SDS011;76120;53.070;8.802;2024-02-15T20:17:17;21.100000;;;8.800000;;
85687;SDS011;76120;53.070;8.802;2024-02-15T20:18:34;19.800000;;;8.600000;;
85687;SDS011;76120;53.070;8.802;2024-02-15T20:19:52;21.000000;;;10.700000;;
85687;SDS011;76120;53.070;8.802;2024-02-15T20:21:32;11.100000;;;5.800000;;
85687;SDS011;76120;53.070;8.802;2024-02-15T20:22:46;7.600000;;;6.200000;;
85687;SDS011;76120;53.070;8.802;2024-02-15T20:24:32;14.200000;;;6.000000;;
85687;SDS011;76120;53.070;8.802;2024-02-15T20:26:20;39.200000;;;7.600000;;
85687;SDS011;76120;53.070;8.802;2024-02-15T20:28:07;6.000000;;;5.200000;;
85687;SDS011;76120;53.070;8.802;2024-02-15T20:29:54;12.700000;;;6.800000;;
85687;SDS011;76120;53.070;8.802;2024-02-15T20:31:43;19.600000;;;6.300000;;
85687;SDS011;76120;53.070;8.802;2024-02-15T20:33:29;20.500000;;;6.500000;;
85687;SDS011;76120;53.070;8.802;2024-02-15T20:35:16;12.200000;;;7.600000;;
85687;SDS011;76120;53.070;8.802;2024-02-15T20:37:04;14.400000;;;7.100000;;
85687;SDS011;76120;53.070;8.802;2024-02-15T20:38:52;13.600000;;;4.900000;;
85687;SDS011;76120;53.070;8.802;2024-02-15T20:40:39;9.400000;;;4.700000;;
85687;SDS011;76120;53.070;8.802;2024-02-15T20:42:26;10.800000;;;6.100000;;
85687;SDS011;76120;53.070;8.802;2024-02-15T20:44:04;24.600000;;;7.500000;;
85687;SDS011;76120;53.070;8.802;2024-02-15T20:45:50;7.800000;;;4.700000;;
85687;SDS011;76120;53.070;8.802;2024-02-15T20:48:14;11.800000;;;6.000000;;
85687;SDS011;76120;53.070;8.802;2024-02-15T20:49:39;14.700000;;;5.800000;;
85687;SDS011;76120;53.070;8.802;2024-02-15T20:51:04;21.800000;;;6.800000;;
85687;SDS011;76120;53.070;8.802;2024-02-15T20:52:28;15.200000;;;7.100000;;
85687;SDS011;76120;53.070;8.802;2024-02-15T20:53:54;14.200000;;;6.800000;;
85687;SDS011;76120;53.070;8.802;2024-02-15T20:55:23;17.900000;;;5.900000;;
85687;SDS011;76120;53.070;8.802;2024-02-15T20:56:49;17.400000;;;7.500000;;
85687;SDS011;76120;53.070;8.802;2024-02-15T20:58:08;17.100000;;;6.100000;;
85687;SDS011;76120;53.070;8.802;2024-02-15T20:59:34;11.400000;;;5.400000;;
85687;SDS011;76120;53.070;8.802;2024-02-15T21:00:58;13.200000;;;5.400000;;
85687;SDS011;76120;53.070;8.802;2024-02-15T21:02:29;12.800000;;;4.800000;;
85687;SDS011;76120;53.070;8.802;2024-02-15T21:03:48;16.100000;;;6.300000;;
85687;SDS011;76120;53.070;8.802;2024-02-15T21:05:13;10.100000;;;6.000000;;
85687;SDS011;76120;53.070;8.802;2024-02-15T21:06:43;14.700000;;;5.200000;;
85687;SDS011;76120;53.070;8.802;2024-02-15T21:08:05;11.100000;;;4.800000;;
85687;SDS011;76120;53.070;8.802;2024-02-15T21:09:28;11.600000;;;5.400000;;
85687;SDS011;76120;53.070;8.802;2024-02-15T21:10:57;19.600000;;;5.800000;;
85687;SDS011;76120;53.070;8.802;2024-02-15T21:13:13;8.800000;;;4.700000;;
85687;SDS011;76120;53.070;8.802;2024-02-15T21:15:07;10.400000;;;4.900000;;
85687;SDS011;76120;53.070;8.802;2024-02-15T21:17:03;14.500000;;;5.300000;;
85687;SDS011;76120;53.070;8.802;2024-02-15T21:18:57;12.900000;;;4.700000;;
85687;SDS011;76120;53.070;8.802;2024-02-15T21:20:52;11.800000;;;5.000000;;
85687;SDS011;76120;53.070;8.802;2024-02-15T21:22:47;19.300000;;;5.200000;;
85687;SDS011;76120;53.070;8.802;2024-02-15T21:24:42;14.500000;;;6.100000;;
85687;SDS011;76120;53.070;8.802;2024-02-15T21:26:41;11.300000;;;5.400000;;
85687;SDS011;76120;53.070;8.802;2024-02-15T21:28:32;7.500000;;;4.400000;;
85687;SDS011;76120;53.070;8.802;2024-02-15T21:30:27;10.900000;;;4.600000;;
85687;SDS011;76120;53.070;8.802;2024-02-15T21:32:22;8.300000;;;4.700000;;
85687;SDS011;76120;53.070;8.802;2024-02-15T21:36:47;12.000000;;;5.000000;;
85687;SDS011;76120;53.070;8.802;2024-02-15T21:40:16;8.800000;;;4.800000;;
85687;SDS011;76120;53.070;8.802;2024-02-15T21:41:11;14.300000;;;4.700000;;
85687;SDS011;76120;53.070;8.802;2024-02-15T21:42:05;16.000000;;;5.700000;;
85687;SDS011;76120;53.070;8.802;2024-02-15T21:43:01;11.400000;;;5.100000;;
85687;SDS011;76120;53.070;8.802;2024-02-15T21:43:55;8.900000;;;4.300000;;
85687;SDS011;76120;53.070;8.802;2024-02-15T21:44:51;9.400000;;;4.700000;;
85687;SDS011;76120;53.070;8.802;2024-02-15T21:45:46;12.700000;;;4.900000;;
85687;SDS011;76120;53.070;8.802;2024-02-15T21:46:45;13.400000;;;5.300000;;
85687;SDS011;76120;53.070;8.802;2024-02-15T21:47:40;8.100000;;;5.200000;;
85687;SDS011;76120;53.070;8.802;2024-02-15T21:48:31;11.200000;;;4.200000;;
85687;SDS011;76120;53.070;8.802;2024-02-15T21:49:25;9.300000;;;5.000000;;
85687;SDS011;76120;53.070;8.802;2024-02-15T21:50:25;13.000000;;;5.600000;;
85687;SDS011;76120;53.070;8.802;2024-02-15T21:51:15;8.300000;;;4.900000;;
85687;SDS011;76120;53.070;8.802;2024-02-15T21:52:11;11.600000;;;4.800000;;
85687;SDS011;76120;53.070;8.802;2024-02-15T21:53:10;9.900000;;;4.000000;;
85687;SDS011;76120;53.070;8.802;2024-02-15T21:54:01;10.700000;;;4.900000;;
85687;SDS011;76120;53.070;8.802;2024-02-15T21:54:55;10.600000;;;5.400000;;
85687;SDS011;76120;53.070;8.802;2024-02-15T21:55:50;10.100000;;;4.500000;;
85687;SDS011;76120;53.070;8.802;2024-02-15T21:56:45;11.700000;;;5.200000;;
85687;SDS011;76120;53.070;8.802;2024-02-15T21:57:45;10.200000;;;4.700000;;
85687;SDS011;76120;53.070;8.802;2024-02-15T21:58:35;13.100000;;;4.800000;;
85687;SDS011;76120;53.070;8.802;2024-02-15T21:59:32;11.300000;;;5.000000;;
85687;SDS011;76120;53.070;8.802;2024-02-15T22:00:25;7.200000;;;3.900000;;
85687;SDS011;76120;53.070;8.802;2024-02-15T22:01:20;10.000000;;;4.600000;;
85687;SDS011;76120;53.070;8.802;2024-02-15T22:02:15;10.300000;;;4.700000;;
85687;SDS011;76120;53.070;8.802;2024-02-15T22:03:10;9.200000;;;4.100000;;
85687;SDS011;76120;53.070;8.802;2024-02-15T22:04:05;10.400000;;;4.900000;;
85687;SDS011;76120;53.070;8.802;2024-02-15T22:05:00;7.400000;;;4.600000;;
85687;SDS011;76120;53.070;8.802;2024-02-15T22:05:55;10.200000;;;5.300000;;
85687;SDS011;76120;53.070;8.802;2024-02-15T22:06:49;10.800000;;;4.700000;;
85687;SDS011;76120;53.070;8.802;2024-02-15T22:07:45;8.000000;;;4.700000;;
85687;SDS011;76120;53.070;8.802;2024-02-15T22:08:39;12.000000;;;5.200000;;
85687;SDS011;76120;53.070;8.802;2024-02-15T22:09:39;13.600000;;;4.600000;;
85687;SDS011;76120;53.070;8.802;2024-02-15T22:10:30;6.000000;;;3.600000;;
85687;SDS011;76120;53.070;8.802;2024-02-15T22:11:24;10.300000;;;5.000000;;
85687;SDS011;76120;53.070;8.802;2024-02-15T22:12:24;8.500000;;;4.900000;;
85687;SDS011;76120;53.070;8.802;2024-02-15T22:13:20;9.000000;;;4.000000;;
